Time;durP1;ratioP1;P1;durP2;ratioP2;P2;SDS_P1;SDS_P2;PMS_P1;PMS_P2;Temp;Humidity;BMP_temperature;BMP_pressure;BME280_temperature;BME280_humidity;BME280_pressure;Samples;Min_cycle;Max_cycle;Signal;HPM_P1;HPM_P2
2021/07/04 00:00:26;;;;;;;19.07;14.63;;;;;;;18.18;86.22;100278.41;1714791;82;25832;-76
2021/07/04 00:02:56;;;;;;;22.15;14.23;;;;;;;18.16;86.43;100280.55;1712001;81;25813;-76
2021/07/04 00:05:28;;;;;;;18.73;14.30;;;;;;;18.16;86.58;100280.02;1667403;81;28437;-76
2021/07/04 00:07:55;;;;;;;20.77;14.68;;;;;;;18.16;86.60;100277.83;1681576;81;25815;-75
2021/07/04 00:10:30;;;;;;;18.02;14.98;;;;;;;18.16;86.68;100279.19;1733596;81;25948;-76
2021/07/04 00:12:58;;;;;;;17.35;13.22;;;;;;;18.19;86.87;100274.13;1706266;81;26459;-75
2021/07/04 00:15:29;;;;;;;17.80;13.72;;;;;;;18.20;86.80;100277.63;1690108;81;25943;-76
2021/07/04 00:17:56;;;;;;;18.40;13.60;;;;;;;18.22;86.89;100267.39;1710985;81;27467;-76
2021/07/04 00:20:24;;;;;;;18.80;12.58;;;;;;;18.21;86.80;100269.80;1736097;81;25828;-76
2021/07/04 00:22:54;;;;;;;19.73;13.13;;;;;;;18.23;86.82;100273.09;1685856;81;25797;-75
2021/07/04 00:25:21;;;;;;;15.48;13.50;;;;;;;18.23;86.84;100263.08;1691296;81;26592;-75
2021/07/04 00:27:48;;;;;;;15.63;13.88;;;;;;;18.23;86.90;100271.20;1687108;81;25889;-76
2021/07/04 00:30:16;;;;;;;16.50;14.07;;;;;;;18.25;87.01;100269.59;1708135;81;27557;-76
2021/07/04 00:32:44;;;;;;;19.35;13.45;;;;;;;18.22;86.99;100266.84;1708760;81;26175;-76
2021/07/04 00:35:14;;;;;;;16.62;13.30;;;;;;;18.22;87.03;100260.06;1687639;81;25833;-76
2021/07/04 00:37:42;;;;;;;17.98;14.28;;;;;;;18.22;87.04;100264.69;1683494;81;25831;-76
2021/07/04 00:40:11;;;;;;;16.82;13.72;;;;;;;18.21;87.08;100262.50;1733847;81;25778;-76
2021/07/04 00:42:39;;;;;;;18.32;15.48;;;;;;;18.20;87.13;100262.72;1706973;81;27350;-76
2021/07/04 00:45:12;;;;;;;21.27;15.50;;;;;;;18.18;87.25;100256.20;1688458;81;25942;-76
2021/07/04 00:47:39;;;;;;;18.98;14.05;;;;;;;18.18;87.24;100254.01;1704365;81;25752;-75
2021/07/04 00:50:08;;;;;;;15.68;13.90;;;;;;;18.20;87.40;100258.66;1733148;81;25857;-75
2021/07/04 00:52:36;;;;;;;18.65;14.05;;;;;;;18.24;87.39;100247.63;1706350;81;25874;-76
2021/07/04 00:55:07;;;;;;;22.70;15.20;;;;;;;18.26;87.40;100251.72;1687234;81;27433;-76
2021/07/04 00:57:34;;;;;;;;;;;;;;;18.27;87.36;100249.84;1735179;81;25905;-76
2021/07/04 01:00:07;;;;;;;15.35;13.83;;;;;;;18.21;87.44;100243.52;1681170;81;25857;-75
2021/07/04 01:02:34;;;;;;;17.57;14.95;;;;;;;18.17;87.57;100234.77;1731321;81;25835;-75
2021/07/04 01:05:10;;;;;;;18.20;14.70;;;;;;;18.14;87.60;100234.71;1709674;81;25914;-76
2021/07/04 01:07:40;;;;;;;23.77;16.93;;;;;;;18.09;87.84;100229.19;1733547;81;27470;-76
2021/07/04 01:10:10;;;;;;;20.35;15.48;;;;;;;18.09;88.03;100225.68;1682378;81;25896;-76
2021/07/04 01:12:39;;;;;;;20.80;16.93;;;;;;;18.07;88.14;100227.81;1711771;81;25994;-75
2021/07/04 01:15:07;;;;;;;22.50;16.60;;;;;;;18.05;88.23;100232.10;1689696;81;25835;-76
2021/07/04 01:17:39;;;;;;;17.90;15.80;;;;;;;18.04;88.41;100232.36;1717013;81;25900;-75
2021/07/04 01:20:10;;;;;;;22.93;16.27;;;;;;;17.97;88.61;100232.51;1707015;81;27440;-76
2021/07/04 01:22:40;;;;;;;26.40;17.90;;;;;;;17.95;88.73;100231.93;1731487;81;26187;-76
2021/07/04 01:25:11;;;;;;;25.15;17.77;;;;;;;17.97;89.10;100232.51;1735524;81;25884;-76
2021/07/04 01:27:39;;;;;;;25.08;17.42;;;;;;;17.95;89.62;100229.22;1734894;81;26171;-75
2021/07/04 01:30:11;;;;;;;28.77;18.57;;;;;;;17.89;89.30;100238.85;1706922;81;25354;-76
2021/07/04 01:32:38;;;;;;;26.10;19.57;;;;;;;17.85;89.53;100234.98;1712342;81;27903;-76
2021/07/04 01:35:07;;;;;;;28.70;19.12;;;;;;;17.82;89.72;100239.00;1710392;81;25993;-76
2021/07/04 01:37:34;;;;;;;26.30;18.23;;;;;;;17.81;90.01;100244.14;1653157;81;26551;-75
2021/07/04 01:40:02;;;;;;;29.25;19.35;;;;;;;17.79;90.29;100242.73;1681423;81;25784;-75
2021/07/04 01:42:30;;;;;;;25.62;19.90;;;;;;;17.75;90.71;100241.02;1710691;81;25972;-76
2021/07/04 01:44:57;;;;;;;27.40;19.57;;;;;;;17.73;90.93;100244.51;1737080;81;27458;-76
2021/07/04 01:47:24;;;;;;;27.60;19.92;;;;;;;17.69;91.34;100241.47;1687310;81;25962;-76
2021/07/04 01:49:52;;;;;;;29.32;21.10;;;;;;;17.68;91.63;100244.44;1710051;81;25812;-76
2021/07/04 01:52:20;;;;;;;32.78;20.75;;;;;;;17.67;91.37;100249.55;1706487;81;25872;-76
2021/07/04 01:54:47;;;;;;;31.95;20.88;;;;;;;17.69;91.54;100247.41;1707141;81;25734;-75
2021/07/04 01:57:15;;;;;;;32.08;21.10;;;;;;;17.68;91.76;100256.63;1711883;81;28329;-76
2021/07/04 01:59:47;;;;;;;33.78;21.90;;;;;;;17.68;91.78;100256.06;1713332;81;26539;-75
2021/07/04 02:02:19;;;;;;;32.05;21.23;;;;;;;17.71;91.92;100253.41;1706026;82;25828;-75
2021/07/04 02:04:46;;;;;;;29.60;21.40;;;;;;;17.69;92.33;100250.13;1730194;81;25931;-76
2021/07/04 02:07:25;;;;;;;37.50;23.35;;;;;;;17.68;92.12;100248.49;1689005;81;26591;-76
2021/07/04 02:09:54;;;;;;;36.48;21.82;;;;;;;17.68;92.17;100244.44;1714308;81;28769;-76
2021/07/04 02:12:23;;;;;;;33.75;22.58;;;;;;;17.67;92.35;100244.13;1711189;81;26448;-76
2021/07/04 02:14:52;;;;;;;33.15;21.52;;;;;;;17.69;92.50;100255.54;1710243;81;25771;-76
2021/07/04 02:17:21;;;;;;;37.25;21.50;;;;;;;17.67;92.38;100253.61;1684765;81;26670;-76
2021/07/04 02:19:50;;;;;;;33.60;22.73;;;;;;;17.65;92.76;100255.21;1713757;81;26314;-76
2021/07/04 02:22:21;;;;;;;31.97;21.42;;;;;;;17.64;92.61;100250.84;1707418;81;27626;-76
2021/07/04 02:24:59;;;;;;;32.28;22.22;;;;;;;17.66;92.75;100252.78;1710876;81;25819;-75
2021/07/04 02:27:34;;;;;;;40.90;20.72;;;;;;;17.67;92.79;100249.02;1685775;81;25341;-75
2021/07/04 02:30:13;;;;;;;36.50;22.13;;;;;;;17.69;93.11;100250.13;1693114;81;26545;-75
2021/07/04 02:32:42;;;;;;;36.90;22.05;;;;;;;17.67;92.96;100245.48;1681524;81;25973;-76
2021/07/04 02:35:11;;;;;;;33.92;23.52;;;;;;;17.65;93.07;100243.55;1742977;81;27446;-76
2021/07/04 02:37:38;;;;;;;34.85;22.22;;;;;;;17.65;93.21;100247.61;1685780;81;25816;-75
2021/07/04 02:40:10;;;;;;;36.35;22.70;;;;;;;17.64;93.24;100237.30;1717188;81;25385;-75
2021/07/04 02:42:41;;;;;;;40.05;23.18;;;;;;;17.65;93.42;100238.13;1716236;81;26652;-76
2021/07/04 02:45:09;;;;;;;44.90;24.90;;;;;;;17.66;93.42;100240.59;1736899;81;25843;-76
2021/07/04 02:47:37;;;;;;;40.60;23.87;;;;;;;17.64;93.49;100241.92;1685691;81;27194;-76
2021/07/04 02:50:07;;;;;;;41.68;24.10;;;;;;;17.63;93.98;100248.38;1716140;81;25931;-76
2021/07/04 02:52:34;;;;;;;38.92;23.73;;;;;;;17.60;93.99;100246.14;1685872;81;25832;-76
2021/07/04 02:55:04;;;;;;;46.18;25.68;;;;;;;17.59;94.13;100252.12;1713856;81;26512;-76
2021/07/04 02:57:33;;;;;;;43.65;24.50;;;;;;;17.64;94.08;100256.81;1684360;81;25325;-75
2021/07/04 03:00:06;;;;;;;46.92;24.77;;;;;;;17.66;94.13;100245.20;1715572;81;27763;-76
2021/07/04 03:02:34;;;;;;;38.80;25.15;;;;;;;17.68;94.21;100252.55;1709988;81;26421;-76
2021/07/04 03:05:01;;;;;;;41.23;24.23;;;;;;;17.68;94.23;100257.97;1741273;81;25863;-75
2021/07/04 03:07:29;;;;;;;55.10;25.88;;;;;;;17.70;94.13;100250.42;1686651;81;26566;-76
2021/07/04 03:09:56;;;;;;;50.80;26.42;;;;;;;17.71;94.33;100255.59;1680486;81;26031;-75
2021/07/04 03:12:25;;;;;;;48.02;24.15;;;;;;;17.72;94.19;100252.36;1717537;81;28315;-76
2021/07/04 03:14:52;;;;;;;39.88;24.63;;;;;;;17.75;94.29;100243.73;1711820;81;25784;-75
2021/07/04 03:17:19;;;;;;;34.40;23.90;;;;;;;17.79;94.34;100250.34;1687143;81;26597;-75
2021/07/04 03:19:46;;;;;;;39.85;24.77;;;;;;;17.82;94.36;100247.13;1683353;81;25768;-76
2021/07/04 03:22:13;;;;;;;45.20;24.77;;;;;;;17.86;94.35;100255.06;1709074;81;26165;-76
2021/07/04 03:24:40;;;;;;;47.27;25.27;;;;;;;17.88;94.34;100256.99;1740198;81;28164;-76
2021/07/04 03:27:09;;;;;;;55.75;26.55;;;;;;;17.90;94.24;100268.97;1689623;81;25857;-75
2021/07/04 03:29:37;;;;;;;40.92;25.48;;;;;;;17.91;94.33;100270.07;1710787;81;25753;-76
2021/07/04 03:32:06;;;;;;;45.20;25.90;;;;;;;17.92;94.33;100267.63;1713749;81;26535;-76
2021/07/04 03:34:35;;;;;;;54.38;26.37;;;;;;;17.92;94.54;100273.61;1740479;81;25750;-75
2021/07/04 03:37:03;;;;;;;45.98;25.92;;;;;;;17.90;94.57;100278.45;1719132;81;28386;-75
2021/07/04 03:39:31;;;;;;;45.73;25.77;;;;;;;17.92;94.68;100279.03;1682345;81;25912;-75
2021/07/04 03:41:59;;;;;;;47.80;26.65;;;;;;;17.92;94.63;100279.03;1714957;81;25919;-75
2021/07/04 03:44:26;;;;;;;43.87;27.17;;;;;;;17.92;94.75;100275.77;1737051;81;26484;-75
2021/07/04 03:46:54;;;;;;;45.73;26.27;;;;;;;17.92;94.86;100277.67;1661944;81;25736;-76
2021/07/04 03:49:21;;;;;;;34.23;23.95;;;;;;;17.92;95.12;100279.03;1682361;81;27588;-76
2021/07/04 03:51:50;;;;;;;38.33;26.30;;;;;;;17.93;95.04;100284.20;1717138;81;25808;-76
2021/07/04 03:54:17;;;;;;;44.70;25.88;;;;;;;17.96;95.08;100281.02;1710522;81;25924;-75
2021/07/04 03:56:44;;;;;;;55.33;26.17;;;;;;;17.98;95.24;100280.77;1678787;81;26549;-75
2021/07/04 03:59:12;;;;;;;35.28;23.65;;;;;;;17.99;95.37;100283.75;1713973;81;25760;-77
2021/07/04 04:01:40;;;;;;;39.85;25.62;;;;;;;17.99;95.35;100283.75;1706510;81;27582;-76
2021/07/04 04:04:08;;;;;;;33.23;22.82;;;;;;;17.99;95.53;100281.87;1736962;81;26445;-76
2021/07/04 04:06:35;;;;;;;44.03;25.25;;;;;;;17.99;95.56;100288.64;1684562;81;26657;-76
2021/07/04 04:09:11;;;;;;;35.92;23.87;;;;;;;18.00;95.66;100284.05;1693009;81;26051;-76
2021/07/04 04:11:43;;;;;;;36.88;23.67;;;;;;;18.01;95.72;100291.93;1698066;81;25794;-77
2021/07/04 04:14:12;;;;;;;37.17;23.62;;;;;;;18.02;95.79;100292.23;1736121;81;27543;-77
2021/07/04 04:16:41;;;;;;;40.95;24.63;;;;;;;18.06;95.80;100292.56;1718132;81;25927;-76
2021/07/04 04:19:08;;;;;;;38.23;24.85;;;;;;;18.10;95.75;100295.08;1712063;81;25906;-75
2021/07/04 04:21:36;;;;;;;33.88;24.02;;;;;;;18.11;95.79;100290.75;1714505;81;26485;-75
2021/07/04 04:24:07;;;;;;;40.10;24.90;;;;;;;18.14;95.60;100292.99;1737332;81;25797;-75
2021/07/04 04:26:34;;;;;;;34.15;23.25;;;;;;;18.15;95.60;100294.66;1708577;83;27528;-76
2021/07/04 04:29:01;;;;;;;34.90;24.63;;;;;;;18.20;95.91;100293.89;1656197;83;25974;-76
2021/07/04 04:31:29;;;;;;;35.98;24.87;;;;;;;18.21;95.63;100290.13;1710459;83;25846;-76
2021/07/04 04:33:56;;;;;;;38.78;23.80;;;;;;;18.21;95.57;100286.06;1680919;83;26020;-76
2021/07/04 04:36:24;;;;;;;39.90;24.80;;;;;;;18.22;95.85;100280.95;1662928;83;25866;-76
2021/07/04 04:38:51;;;;;;;32.23;23.87;;;;;;;18.23;95.70;100286.12;1688296;83;27322;-76
2021/07/04 04:41:19;;;;;;;35.35;23.32;;;;;;;18.26;95.72;100294.30;1713192;81;25896;-75
2021/07/04 04:43:47;;;;;;;37.15;23.50;;;;;;;18.30;95.91;100285.97;1683451;81;25751;-75
2021/07/04 04:46:14;;;;;;;35.90;25.32;;;;;;;18.32;95.72;100288.73;1686233;83;25790;-76
2021/07/04 04:48:43;;;;;;;33.30;23.47;;;;;;;18.38;95.86;100290.98;1681254;81;25955;-76
2021/07/04 04:51:10;;;;;;;34.45;22.65;;;;;;;18.40;95.67;100288.32;1727820;81;28233;-77
2021/07/04 04:53:37;;;;;;;35.65;22.67;;;;;;;18.43;95.53;100286.45;1658188;83;25993;-76
2021/07/04 04:56:04;;;;;;;35.52;22.70;;;;;;;18.47;95.65;100280.05;1683858;82;25409;-76
2021/07/04 04:58:31;;;;;;;31.93;21.42;;;;;;;18.51;95.64;100287.16;1657804;82;26533;-76
2021/07/04 05:00:58;;;;;;;32.35;22.45;;;;;;;18.53;95.90;100285.02;1724993;82;25882;-76
2021/07/04 05:03:25;;;;;;;33.85;22.40;;;;;;;18.58;95.96;100283.76;1698882;82;28328;-75
2021/07/04 05:05:52;;;;;;;31.33;22.60;;;;;;;18.65;96.02;100279.00;1700205;81;25756;-76
2021/07/04 05:08:19;;;;;;;35.78;22.22;;;;;;;18.68;95.92;100280.67;1660991;83;25907;-75
2021/07/04 05:10:47;;;;;;;29.67;21.87;;;;;;;18.72;95.95;100279.11;1685497;83;25853;-76
2021/07/04 05:13:14;;;;;;;28.73;20.32;;;;;;;18.76;95.69;100281.61;1653032;83;26482;-76
2021/07/04 05:15:41;;;;;;;25.75;19.48;;;;;;;18.81;95.46;100293.08;1676148;84;27465;-76
2021/07/04 05:18:08;;;;;;;26.62;19.73;;;;;;;18.80;95.19;100292.25;1655162;84;26582;-76
2021/07/04 05:20:35;;;;;;;25.17;20.02;;;;;;;18.79;94.92;100296.58;1702444;82;25777;-75
2021/07/04 05:23:02;;;;;;;25.20;18.27;;;;;;;18.78;94.92;100292.20;1692548;83;26139;-76
2021/07/04 05:25:30;;;;;;;33.20;19.52;;;;;;;18.74;94.77;100292.41;1648294;84;25736;-76
2021/07/04 05:27:57;;;;;;;24.07;18.12;;;;;;;18.73;94.60;100297.57;1664081;84;27325;-76
2021/07/04 05:30:24;;;;;;;26.73;18.90;;;;;;;18.74;94.85;100297.31;1714260;83;25780;-75
2021/07/04 05:32:52;;;;;;;24.60;18.57;;;;;;;18.73;94.90;100304.36;1676207;84;26672;-75
2021/07/04 05:35:19;;;;;;;29.37;18.87;;;;;;;18.67;94.59;100303.44;1690389;83;26471;-75
2021/07/04 05:37:47;;;;;;;29.10;18.32;;;;;;;18.64;94.66;100297.69;1669608;83;26031;-76
2021/07/04 05:40:14;;;;;;;23.22;16.57;;;;;;;18.62;94.87;100295.76;1720370;83;27427;-77
2021/07/04 05:42:43;;;;;;;24.57;18.75;;;;;;;18.61;94.72;100300.88;1670752;83;26618;-76
2021/07/04 05:45:17;;;;;;;23.35;17.60;;;;;;;18.62;94.79;100303.90;1692146;83;25790;-76
2021/07/04 05:47:44;;;;;;;25.32;19.30;;;;;;;18.63;95.05;100302.81;1674668;83;25931;-76
2021/07/04 05:50:11;;;;;;;24.25;18.55;;;;;;;18.67;94.92;100305.34;1724480;83;25963;-76
2021/07/04 05:52:38;;;;;;;27.55;19.90;;;;;;;18.69;95.17;100305.92;1671333;83;27476;-76
2021/07/04 05:55:06;;;;;;;34.03;20.30;;;;;;;18.68;94.99;100314.59;1643317;83;26023;-76
2021/07/04 05:57:33;;;;;;;28.40;19.60;;;;;;;18.71;95.00;100314.08;1643755;84;25345;-76
2021/07/04 06:00:00;;;;;;;27.67;19.45;;;;;;;18.72;94.98;100311.66;1719405;83;25795;-76
2021/07/04 06:02:27;;;;;;;29.65;20.55;;;;;;;18.70;94.82;100323.30;1657748;83;25970;-76
2021/07/04 06:04:54;;;;;;;27.20;18.92;;;;;;;18.73;95.07;100321.99;1673392;84;27517;-76
2021/07/04 06:07:21;;;;;;;25.82;19.57;;;;;;;18.72;95.09;100321.69;1680257;83;25864;-76
2021/07/04 06:09:48;;;;;;;27.35;19.30;;;;;;;18.74;94.87;100314.13;1741466;81;25557;-76
2021/07/04 06:12:15;;;;;;;30.77;19.70;;;;;;;18.75;94.98;100315.78;1702715;81;26592;-76
2021/07/04 06:14:42;;;;;;;24.37;19.42;;;;;;;18.79;95.28;100319.12;1688065;83;25930;-76
2021/07/04 06:17:10;;;;;;;27.25;17.90;;;;;;;18.83;95.09;100314.84;1688439;83;28257;-76
2021/07/04 06:19:37;;;;;;;27.93;19.45;;;;;;;18.84;94.98;100312.39;1709497;83;26212;-76
2021/07/04 06:22:04;;;;;;;24.72;17.90;;;;;;;18.83;94.78;100307.22;1656954;81;25906;-75
2021/07/04 06:24:31;;;;;;;28.15;18.52;;;;;;;18.81;94.94;100312.91;1698616;82;26402;-76
2021/07/04 06:26:58;;;;;;;25.27;18.57;;;;;;;18.78;94.96;100307.96;1688956;83;26034;-76
2021/07/04 06:29:25;;;;;;;27.30;19.35;;;;;;;18.77;95.07;100310.41;1712932;83;27900;-76
2021/07/04 06:31:52;;;;;;;29.32;19.57;;;;;;;18.79;95.29;100310.14;1660644;83;25882;-76
2021/07/04 06:34:19;;;;;;;30.90;19.57;;;;;;;18.80;95.16;100309.89;1685670;83;26020;-76
2021/07/04 06:36:46;;;;;;;25.02;17.25;;;;;;;18.80;94.92;100313.96;1691304;81;25904;-76
2021/07/04 06:39:14;;;;;;;24.90;17.57;;;;;;;18.79;94.94;100313.69;1696506;81;25873;-76
2021/07/04 06:41:41;;;;;;;25.77;17.10;;;;;;;18.82;94.95;100315.89;1679163;81;27591;-76
2021/07/04 06:44:09;;;;;;;24.45;16.90;;;;;;;18.87;95.05;100317.87;1713960;80;25948;-76
2021/07/04 06:46:36;;;;;;;25.55;17.92;;;;;;;18.87;95.12;100314.63;1706387;81;26521;-76
2021/07/04 06:49:03;;;;;;;26.37;17.60;;;;;;;18.88;95.02;100312.19;1736726;80;25870;-76
2021/07/04 06:51:30;;;;;;;27.42;18.23;;;;;;;18.86;95.00;100310.25;1677355;83;25987;-76
2021/07/04 06:53:57;;;;;;;24.98;18.05;;;;;;;18.86;94.93;100313.52;1713377;82;27572;-76
2021/07/04 06:56:24;;;;;;;26.35;19.62;;;;;;;18.87;94.92;100315.98;1683652;83;26227;-76
2021/07/04 06:58:51;;;;;;;27.65;19.27;;;;;;;18.91;95.17;100312.23;1688559;83;25397;-76
2021/07/04 07:01:18;;;;;;;25.17;17.57;;;;;;;18.94;94.85;100311.74;1697926;83;25884;-76
2021/07/04 07:03:45;;;;;;;27.77;18.27;;;;;;;18.96;94.93;100305.53;1668130;83;26193;-76
2021/07/04 07:06:12;;;;;;;25.68;17.45;;;;;;;18.98;94.81;100304.74;1706407;83;27356;-76
2021/07/04 07:08:39;;;;;;;25.23;18.67;;;;;;;19.02;94.86;100309.44;1709159;83;25758;-77
2021/07/04 07:11:06;;;;;;;24.63;17.90;;;;;;;19.08;94.67;100308.96;1675112;82;25841;-76
2021/07/04 07:13:33;;;;;;;21.25;16.40;;;;;;;19.11;94.78;100304.41;1672182;82;26616;-76
2021/07/04 07:16:00;;;;;;;29.42;18.45;;;;;;;19.11;94.51;100315.27;1706136;82;26538;-76
2021/07/04 07:18:27;;;;;;;22.52;17.92;;;;;;;19.10;94.40;100313.08;1706952;83;27564;-75
2021/07/04 07:20:54;;;;;;;24.05;17.65;;;;;;;19.13;94.48;100319.38;1688642;82;25820;-77
2021/07/04 07:23:22;;;;;;;23.85;17.60;;;;;;;19.18;94.31;100318.07;1693513;82;25991;-76
2021/07/04 07:25:51;;;;;;;25.80;18.05;;;;;;;19.22;94.10;100312.98;1661349;83;26449;-76
2021/07/04 07:28:18;;;;;;;24.87;17.90;;;;;;;19.25;94.10;100320.61;1687043;83;26552;-76
2021/07/04 07:30:47;;;;;;;22.75;16.65;;;;;;;19.25;93.89;100317.38;1666541;83;27616;-76
2021/07/04 07:33:16;;;;;;;22.35;16.70;;;;;;;19.28;94.11;100317.41;1686939;83;26289;-76
2021/07/04 07:35:43;;;;;;;21.30;16.25;;;;;;;19.28;93.77;100316.05;1665371;81;25811;-76
2021/07/04 07:38:10;;;;;;;24.23;17.52;;;;;;;19.28;93.84;100313.87;1708851;81;25804;-76
2021/07/04 07:40:38;;;;;;;20.90;16.60;;;;;;;19.27;93.73;100306.81;1668289;81;25836;-77
2021/07/04 07:43:05;;;;;;;22.93;17.17;;;;;;;19.24;93.83;100303.52;1674870;83;27562;-76
2021/07/04 07:45:33;;;;;;;22.73;16.97;;;;;;;19.25;94.04;100305.68;1689667;83;26200;-76
2021/07/04 07:48:02;;;;;;;23.67;17.98;;;;;;;19.27;93.90;100311.68;1706755;82;25991;-76
2021/07/04 07:50:29;;;;;;;23.20;17.73;;;;;;;19.27;93.84;100304.89;1694186;82;25851;-76
2021/07/04 07:52:56;;;;;;;21.45;16.50;;;;;;;19.34;94.17;100306.93;1692917;83;25792;-76
2021/07/04 07:55:23;;;;;;;23.42;18.57;;;;;;;19.40;94.28;100308.64;1651801;84;27497;-76
2021/07/04 07:57:51;;;;;;;24.27;17.30;;;;;;;19.45;94.01;100299.73;1711537;83;25934;-76
2021/07/04 08:00:21;;;;;;;22.27;17.15;;;;;;;19.48;94.14;100301.41;1669895;83;25726;-76
2021/07/04 08:02:50;;;;;;;20.97;16.10;;;;;;;19.53;93.93;100305.55;1702590;82;25854;-76
2021/07/04 08:05:19;;;;;;;22.50;16.87;;;;;;;19.53;93.74;100304.20;1736669;82;25926;-76
2021/07/04 08:07:46;;;;;;;21.85;18.05;;;;;;;19.57;93.57;100297.70;1680805;81;27380;-76
2021/07/04 08:10:14;;;;;;;22.02;15.90;;;;;;;19.60;93.67;100298.05;1669863;83;25398;-76
2021/07/04 08:12:43;;;;;;;22.35;16.70;;;;;;;19.64;93.66;100297.82;1677601;83;26699;-77
2021/07/04 08:15:11;;;;;;;24.72;16.37;;;;;;;19.69;93.78;100291.10;1716490;81;25798;-76
2021/07/04 08:17:39;;;;;;;22.40;16.25;;;;;;;19.74;93.77;100290.31;1669050;81;25962;-76
2021/07/04 08:20:08;;;;;;;18.67;15.25;;;;;;;19.80;93.42;100291.48;1703836;81;27519;-77
2021/07/04 08:22:35;;;;;;;21.97;16.57;;;;;;;19.89;93.30;100285.05;1694559;81;25896;-76
2021/07/04 08:25:05;;;;;;;22.85;16.73;;;;;;;19.97;93.15;100288.14;1721818;81;25351;-76
2021/07/04 08:27:32;;;;;;;24.67;17.70;;;;;;;20.04;92.83;100286.58;1720871;81;25764;-76
2021/07/04 08:29:59;;;;;;;21.23;17.25;;;;;;;20.10;92.86;100281.50;1695279;81;25876;-76
2021/07/04 08:32:26;;;;;;;20.80;16.23;;;;;;;20.15;92.83;100281.53;1715626;80;28178;-76
2021/07/04 08:34:53;;;;;;;22.77;18.40;;;;;;;20.26;92.76;100277.87;1745652;80;25743;-76
2021/07/04 08:37:20;;;;;;;23.73;18.15;;;;;;;20.37;92.70;100279.61;1675351;83;25337;-77
2021/07/04 08:39:47;;;;;;;25.90;18.05;;;;;;;20.46;92.29;100271.27;1667093;83;26528;-76
2021/07/04 08:42:14;;;;;;;23.07;16.97;;;;;;;20.56;91.69;100271.34;1696460;81;25859;-76
2021/07/04 08:44:54;;;;;;;23.27;18.17;;;;;;;20.60;91.17;100269.73;1725643;81;27595;-77
2021/07/04 08:47:24;;;;;;;22.02;16.97;;;;;;;20.67;91.11;100267.63;1709819;81;25822;-77
2021/07/04 08:49:55;;;;;;;23.73;18.17;;;;;;;20.73;91.14;100265.22;1684436;81;25616;-76
2021/07/04 08:52:23;;;;;;;25.90;19.40;;;;;;;20.83;90.63;100266.38;1693924;81;26546;-76
2021/07/04 08:54:50;;;;;;;30.27;22.10;;;;;;;20.94;90.27;100268.89;1745582;80;25982;-76
2021/07/04 08:57:17;;;;;;;20.90;16.93;;;;;;;21.06;90.23;100263.29;1664183;82;27404;-76
2021/07/04 08:59:47;;;;;;;22.22;17.05;;;;;;;21.16;89.44;100258.72;1699788;82;25902;-76
2021/07/04 09:02:31;;;;;;;25.13;17.23;;;;;;;21.26;89.44;100256.04;1703868;83;26866;-77
2021/07/04 09:05:10;;;;;;;21.30;16.60;;;;;;;21.32;88.59;100252.25;1710102;83;25876;-76
2021/07/04 09:07:39;;;;;;;19.42;16.45;;;;;;;21.38;88.50;100255.84;1679831;81;25823;-76
2021/07/04 09:10:17;;;;;;;18.92;16.27;;;;;;;21.49;88.54;100259.69;1687348;83;27461;-77
2021/07/04 09:12:53;;;;;;;20.05;16.15;;;;;;;21.62;88.34;100261.66;1692076;83;26016;-76
2021/07/04 09:15:28;;;;;;;19.70;15.72;;;;;;;21.72;87.75;100257.06;1740541;81;25872;-76
2021/07/04 09:17:57;;;;;;;19.85;14.65;;;;;;;21.76;87.26;100255.97;1684682;81;25947;-76
2021/07/04 09:20:37;;;;;;;18.75;15.50;;;;;;;21.81;87.49;100258.16;1713697;81;26007;-76
2021/07/04 09:23:04;;;;;;;17.92;14.83;;;;;;;21.86;86.87;100261.48;1737305;81;28342;-77
2021/07/04 09:25:38;;;;;;;20.02;14.55;;;;;;;21.88;86.87;100251.94;1740071;81;25978;-77
2021/07/04 09:28:13;;;;;;;17.90;14.80;;;;;;;21.93;86.67;100252.50;1716740;81;26112;-77
2021/07/04 09:30:53;;;;;;;23.25;15.83;;;;;;;21.99;87.27;100260.43;1739969;81;25924;-76
2021/07/04 09:33:29;;;;;;;16.23;14.47;;;;;;;22.08;86.96;100254.73;1715173;81;26192;-77
2021/07/04 09:36:00;;;;;;;17.32;14.30;;;;;;;22.16;85.96;100258.28;1736126;81;27575;-76
2021/07/04 09:38:40;;;;;;;20.23;14.38;;;;;;;22.22;85.50;100257.19;1680634;81;25887;-76
2021/07/04 09:41:14;;;;;;;16.62;13.60;;;;;;;22.34;85.49;100260.20;1689848;81;25893;-77
2021/07/04 09:43:42;;;;;;;19.32;14.55;;;;;;;22.46;84.14;100253.39;1713924;81;26625;-76
2021/07/04 09:46:13;;;;;;;15.95;13.25;;;;;;;22.51;84.09;100257.48;1734636;81;25725;-76
2021/07/04 09:48:47;;;;;;;17.82;13.43;;;;;;;22.58;83.62;100251.19;1721804;81;27406;-77
2021/07/04 09:51:24;;;;;;;18.15;14.35;;;;;;;22.62;83.35;100249.61;1690883;81;26220;-77
2021/07/04 09:53:56;;;;;;;17.62;13.35;;;;;;;22.63;83.11;100248.50;1715285;81;25883;-76
2021/07/04 09:56:32;;;;;;;18.77;13.15;;;;;;;22.67;82.68;100242.76;1730247;81;26590;-77
2021/07/04 09:59:03;;;;;;;18.82;13.60;;;;;;;22.68;82.75;100242.22;1727558;81;25948;-77
2021/07/04 10:01:46;;;;;;;16.00;13.05;;;;;;;22.68;82.13;100238.13;1717171;81;28223;-76
2021/07/04 10:04:36;;;;;;;18.70;14.18;;;;;;;22.67;82.66;100231.84;1716076;81;25873;-77
2021/07/04 10:07:03;;;;;;;20.08;14.85;;;;;;;22.78;82.24;100231.27;1740671;81;26485;-77
2021/07/04 10:09:31;;;;;;;17.42;13.45;;;;;;;22.91;83.11;100228.80;1712879;82;26399;-76
2021/07/04 10:11:59;;;;;;;16.57;13.60;;;;;;;23.12;82.44;100221.94;1703677;82;25822;-76
2021/07/04 10:14:27;;;;;;;17.32;15.10;;;;;;;23.26;81.91;100219.70;1724979;82;27557;-76
2021/07/04 10:16:54;;;;;;;15.45;13.78;;;;;;;23.35;81.65;100210.40;1718994;82;25829;-76
2021/07/04 10:19:25;;;;;;;17.10;13.30;;;;;;;23.48;82.00;100210.59;1649636;82;25646;-76
2021/07/04 10:21:59;;;;;;;17.42;13.22;;;;;;;23.60;81.49;100202.07;1685921;83;25804;-77
2021/07/04 10:24:27;;;;;;;18.32;13.05;;;;;;;23.67;80.79;100202.59;1695173;82;25746;-77
2021/07/04 10:26:56;;;;;;;19.45;13.78;;;;;;;23.71;80.36;100196.27;1717670;82;27609;-76
2021/07/04 10:29:29;;;;;;;20.10;13.05;;;;;;;23.75;79.91;100193.78;1695902;82;25911;-76
2021/07/04 10:32:09;;;;;;;15.13;12.50;;;;;;;23.78;79.28;100189.92;1676526;82;25777;-76
2021/07/04 10:34:52;;;;;;;15.37;12.10;;;;;;;23.85;79.40;100189.60;1698246;82;25813;-76
2021/07/04 10:37:35;;;;;;;14.68;12.47;;;;;;;23.91;79.19;100189.83;1718253;82;25780;-77
2021/07/04 10:40:19;;;;;;;22.42;11.73;;;;;;;23.97;78.53;100185.98;1701406;82;27993;-76
2021/07/04 10:42:47;;;;;;;13.98;12.35;;;;;;;24.02;78.08;100183.73;1684140;82;26105;-76
2021/07/04 10:45:35;;;;;;;14.20;12.18;;;;;;;24.06;77.01;100179.39;1681798;83;25750;-76
2021/07/04 10:48:27;;;;;;;12.13;10.38;;;;;;;24.09;77.75;100180.98;1705952;83;26464;-75
2021/07/04 10:51:16;;;;;;;15.40;11.33;;;;;;;24.13;75.80;100179.86;1684610;83;25875;-77
2021/07/04 10:53:52;;;;;;;16.35;11.73;;;;;;;24.14;75.94;100177.40;1698646;82;27562;-77
2021/07/04 10:56:39;;;;;;;14.25;11.78;;;;;;;24.13;75.89;100176.58;1683484;83;25342;-77
2021/07/04 10:59:10;;;;;;;13.38;11.95;;;;;;;24.14;76.28;100175.48;1709145;83;26196;-76
2021/07/04 11:01:55;;;;;;;14.33;11.78;;;;;;;24.22;76.20;100168.02;1672880;83;25790;-76
2021/07/04 11:04:39;;;;;;;15.20;11.65;;;;;;;24.25;76.19;100168.80;1682573;83;25912;-77
2021/07/04 11:07:06;;;;;;;18.67;11.93;;;;;;;24.31;75.31;100165.48;1685833;83;28144;-77
2021/07/04 11:10:03;;;;;;;16.45;11.95;;;;;;;24.34;74.93;100158.05;1682554;83;25917;-77
2021/07/04 11:12:34;;;;;;;13.00;11.55;;;;;;;24.41;74.57;100159.91;1698692;81;25860;-76
2021/07/04 11:15:16;;;;;;;16.23;12.47;;;;;;;24.49;74.94;100157.91;1682544;83;26452;-77
2021/07/04 11:18:07;;;;;;;13.20;11.80;;;;;;;24.55;74.56;100156.75;1686315;83;25935;-77
2021/07/04 11:20:43;;;;;;;14.95;11.90;;;;;;;24.56;73.89;100155.66;1705324;83;27480;-77